Time;durP1;ratioP1;P1;durP2;ratioP2;P2;SDS_P1;SDS_P2;PMS_P1;PMS_P2;Temp;Humidity;BMP_temperature;BMP_pressure;BME280_temperature;BME280_humidity;BME280_pressure;Samples;Min_cycle;Max_cycle;Signal;HPM_P1;HPM_P2
2022/03/05 00:00:16;;;;;;;;;58.00;44.00;;;;;;;;5035369;28;45324;-73
2022/03/05 00:02:42;;;;;;;;;50.50;41.50;;;;;;;;5035237;28;45533;-73
2022/03/05 00:05:07;;;;;;;;;54.00;42.00;;;;;;;;5035066;28;45519;-73
2022/03/05 00:07:32;;;;;;;;;49.25;38.50;;;;;;;;5034939;28;47079;-72
2022/03/05 00:09:58;;;;;;;;;52.00;39.75;;;;;;;;5035402;28;45550;-72
2022/03/05 00:12:23;;;;;;;;;40.25;34.25;;;;;;;;5034560;28;45332;-73
2022/03/05 00:14:48;;;;;;;;;53.75;42.00;;;;;;;;5034792;28;45496;-73
2022/03/05 00:17:13;;;;;;;;;56.25;43.75;;;;;;;;5033710;28;45471;-73
2022/03/05 00:19:39;;;;;;;;;50.75;40.25;;;;;;;;5034201;28;45351;-74
2022/03/05 00:22:05;;;;;;;;;48.50;39.00;;;;;;;;5034621;28;45303;-73
2022/03/05 00:24:30;;;;;;;;;49.75;40.25;;;;;;;;5034394;28;45422;-73
2022/03/05 00:26:55;;;;;;;;;51.75;42.00;;;;;;;;5034560;28;45430;-73
2022/03/05 00:29:21;;;;;;;;;52.25;41.00;;;;;;;;5033994;28;45610;-74
2022/03/05 00:31:46;;;;;;;;;53.00;39.50;;;;;;;;5033881;28;45441;-72
2022/03/05 00:34:11;;;;;;;;;50.50;37.00;;;;;;;;5016211;28;45618;-74
2022/03/05 00:36:37;;;;;;;;;51.75;40.50;;;;;;;;5033760;28;46381;-73
2022/03/05 00:39:03;;;;;;;;;43.50;35.25;;;;;;;;5018492;28;45412;-74
2022/03/05 00:41:28;;;;;;;;;51.50;39.50;;;;;;;;5034033;28;45722;-74
2022/03/05 00:43:53;;;;;;;;;48.50;37.50;;;;;;;;5015826;28;45568;-71
2022/03/05 00:46:18;;;;;;;;;36.75;31.00;;;;;;;;5033558;28;46097;-72
2022/03/05 00:48:44;;;;;;;;;50.00;39.00;;;;;;;;5034322;28;45414;-72
2022/03/05 00:51:09;;;;;;;;;47.75;36.50;;;;;;;;5034678;28;45265;-72
2022/03/05 00:53:35;;;;;;;;;57.25;44.00;;;;;;;;5034315;28;45236;-74
2022/03/05 00:56:00;;;;;;;;;48.50;40.75;;;;;;;;5032719;28;45946;-73
2022/03/05 00:58:25;;;;;;;;;51.25;42.25;;;;;;;;5033877;28;45390;-73
2022/03/05 01:00:52;;;;;;;;;49.75;41.50;;;;;;;;5033808;28;45447;-73
2022/03/05 01:03:18;;;;;;;;;47.00;37.75;;;;;;;;5033904;28;45312;-73
2022/03/05 01:05:43;;;;;;;;;49.50;39.50;;;;;;;;5033972;28;46770;-73
2022/03/05 01:08:09;;;;;;;;;53.00;40.50;;;;;;;;5033669;28;45753;-73
2022/03/05 01:10:34;;;;;;;;;52.00;40.25;;;;;;;;5033931;28;45511;-73
2022/03/05 01:12:59;;;;;;;;;51.75;40.75;;;;;;;;5033512;28;45485;-73
2022/03/05 01:15:25;;;;;;;;;56.50;45.00;;;;;;;;5032959;28;46480;-72
2022/03/05 01:17:50;;;;;;;;;52.50;40.00;;;;;;;;5019881;28;45362;-73
2022/03/05 01:20:15;;;;;;;;;55.50;43.25;;;;;;;;5031819;28;45303;-73
2022/03/05 01:22:40;;;;;;;;;50.75;42.25;;;;;;;;5033399;28;45514;-73
2022/03/05 01:25:06;;;;;;;;;51.25;41.50;;;;;;;;5033103;28;46205;-74
2022/03/05 01:27:31;;;;;;;;;44.50;36.50;;;;;;;;5033292;28;45320;-73
2022/03/05 01:29:56;;;;;;;;;51.75;41.00;;;;;;;;5033483;28;45339;-73
2022/03/05 01:32:21;;;;;;;;;49.25;39.75;;;;;;;;5015212;28;45568;-73
2022/03/05 01:34:47;;;;;;;;;46.25;36.50;;;;;;;;5033168;28;46301;-73
2022/03/05 01:37:12;;;;;;;;;50.50;37.50;;;;;;;;5033206;28;45488;-72
2022/03/05 01:39:38;;;;;;;;;55.75;43.75;;;;;;;;5033410;28;45553;-72
2022/03/05 01:42:04;;;;;;;;;47.50;37.00;;;;;;;;5033579;28;45288;-73
2022/03/05 01:44:29;;;;;;;;;47.00;38.75;;;;;;;;5032978;28;45380;-72
2022/03/05 01:46:54;;;;;;;;;49.75;40.75;;;;;;;;5033361;28;45456;-72
2022/03/05 01:49:20;;;;;;;;;49.25;40.00;;;;;;;;5033139;28;45515;-74
2022/03/05 01:51:45;;;;;;;;;50.50;41.00;;;;;;;;5033349;28;45372;-73
2022/03/05 01:54:11;;;;;;;;;52.25;40.00;;;;;;;;5033298;28;46950;-72
2022/03/05 01:56:37;;;;;;;;;52.50;38.50;;;;;;;;5021223;28;45298;-73
2022/03/05 01:59:02;;;;;;;;;46.50;39.00;;;;;;;;5029051;28;45313;-74
2022/03/05 02:01:28;;;;;;;;;51.25;42.75;;;;;;;;5033097;28;45551;-74
2022/03/05 02:03:54;;;;;;;;;47.75;37.25;;;;;;;;5033031;28;45999;-72
2022/03/05 02:06:20;;;;;;;;;42.00;35.50;;;;;;;;5033697;28;45324;-74
2022/03/05 02:08:45;;;;;;;;;51.50;41.25;;;;;;;;5037366;28;45469;-73
2022/03/05 02:11:10;;;;;;;;;49.25;39.00;;;;;;;;5036489;28;45707;-73
2022/03/05 02:13:36;;;;;;;;;53.75;40.75;;;;;;;;5035607;28;45418;-72
2022/03/05 02:16:02;;;;;;;;;49.00;40.50;;;;;;;;5035950;28;45540;-73
2022/03/05 02:18:27;;;;;;;;;49.75;40.25;;;;;;;;5036531;28;45454;-74
2022/03/05 02:20:52;;;;;;;;;50.50;39.00;;;;;;;;5037081;28;45454;-72
2022/03/05 02:23:18;;;;;;;;;56.00;41.50;;;;;;;;5036247;28;45750;-74
2022/03/05 02:25:59;;;;;;;;;50.50;40.00;;;;;;;;5036355;28;45458;-73
2022/03/05 02:28:25;;;;;;;;;50.75;40.00;;;;;;;;5035992;28;45465;-73
2022/03/05 02:30:51;;;;;;;;;47.25;40.25;;;;;;;;5036254;28;45363;-73
2022/03/05 02:33:17;;;;;;;;;52.25;40.75;;;;;;;;5036313;28;47101;-73
2022/03/05 02:35:45;;;;;;;;;49.50;39.75;;;;;;;;5023293;28;45568;-73
2022/03/05 02:38:11;;;;;;;;;51.25;39.50;;;;;;;;5033560;28;45431;-73
2022/03/05 02:40:37;;;;;;;;;50.75;38.75;;;;;;;;5035923;28;45296;-73
2022/03/05 02:43:02;;;;;;;;;42.50;36.00;;;;;;;;5035365;28;47218;-73
2022/03/05 02:45:27;;;;;;;;;47.50;37.75;;;;;;;;5035897;28;45347;-73
2022/03/05 02:47:52;;;;;;;;;47.75;39.25;;;;;;;;5036664;28;45296;-73
2022/03/05 02:50:18;;;;;;;;;42.50;35.00;;;;;;;;5036168;28;45561;-74
2022/03/05 02:52:43;;;;;;;;;48.75;38.00;;;;;;;;5035836;28;46293;-73
2022/03/05 02:55:08;;;;;;;;;42.75;35.00;;;;;;;;5035986;28;45441;-73
2022/03/05 02:57:33;;;;;;;;;50.50;37.75;;;;;;;;5035461;28;45394;-73
2022/03/05 02:59:58;;;;;;;;;40.50;35.00;;;;;;;;5036523;28;45515;-74
2022/03/05 03:02:24;;;;;;;;;41.00;34.25;;;;;;;;5035706;28;45985;-73
2022/03/05 03:04:49;;;;;;;;;41.25;35.50;;;;;;;;5035446;28;45349;-73
2022/03/05 03:07:14;;;;;;;;;40.50;33.75;;;;;;;;5035756;28;45464;-73
2022/03/05 03:09:39;;;;;;;;;38.25;33.25;;;;;;;;5035749;28;45500;-74
2022/03/05 03:12:05;;;;;;;;;35.50;28.00;;;;;;;;5035164;28;45411;-73
2022/03/05 03:14:30;;;;;;;;;40.75;33.50;;;;;;;;5023898;28;45477;-73
2022/03/05 03:16:55;;;;;;;;;37.00;31.00;;;;;;;;5030790;28;45261;-73
2022/03/05 03:19:20;;;;;;;;;44.00;36.25;;;;;;;;5034486;28;45424;-73
2022/03/05 03:21:46;;;;;;;;;48.25;39.25;;;;;;;;5035446;28;46237;-73
2022/03/05 03:24:11;;;;;;;;;47.00;36.00;;;;;;;;5035721;28;45378;-72
2022/03/05 03:26:36;;;;;;;;;48.50;39.75;;;;;;;;5035555;28;45454;-73
2022/03/05 03:29:01;;;;;;;;;45.75;38.25;;;;;;;;5035254;28;45525;-73
2022/03/05 03:31:27;;;;;;;;;48.50;39.50;;;;;;;;5035083;28;45507;-73
2022/03/05 03:33:52;;;;;;;;;54.50;43.25;;;;;;;;5035029;28;45535;-71
2022/03/05 03:36:17;;;;;;;;;52.75;40.50;;;;;;;;5035449;28;49887;-73
2022/03/05 03:38:42;;;;;;;;;48.75;38.75;;;;;;;;5033496;28;45281;-72
2022/03/05 03:41:08;;;;;;;;;50.50;36.25;;;;;;;;5034709;28;45984;-73
2022/03/05 03:43:34;;;;;;;;;47.50;37.25;;;;;;;;5034784;28;45375;-73
2022/03/05 03:45:59;;;;;;;;;41.50;34.25;;;;;;;;5035084;28;45300;-73
2022/03/05 03:48:24;;;;;;;;;47.00;36.25;;;;;;;;5035177;28;45418;-73
2022/03/05 03:50:50;;;;;;;;;47.75;37.00;;;;;;;;5035278;28;45368;-72
2022/03/05 03:53:16;;;;;;;;;43.00;34.75;;;;;;;;5025017;28;45581;-73
2022/03/05 03:55:41;;;;;;;;;40.00;33.75;;;;;;;;5027903;28;45562;-74
2022/03/05 03:58:06;;;;;;;;;37.75;31.50;;;;;;;;5034387;28;45537;-72
2022/03/05 04:00:31;;;;;;;;;42.00;34.50;;;;;;;;5034531;28;45439;-73
2022/03/05 04:02:57;;;;;;;;;44.75;34.00;;;;;;;;5035276;28;45336;-73
2022/03/05 04:05:22;;;;;;;;;46.25;36.75;;;;;;;;5034495;28;45572;-72
2022/03/05 04:10:31;;;;;;;;;47.00;38.50;;;;;;;;5033975;28;45857;-73
2022/03/05 04:12:56;;;;;;;;;46.75;37.00;;;;;;;;5034534;28;45392;-73
2022/03/05 04:15:21;;;;;;;;;43.25;35.25;;;;;;;;5034498;28;45700;-73
2022/03/05 04:17:47;;;;;;;;;42.25;35.50;;;;;;;;5035348;28;45268;-73
2022/03/05 04:20:12;;;;;;;;;44.25;35.75;;;;;;;;5034432;28;45688;-73
2022/03/05 04:22:37;;;;;;;;;43.00;35.75;;;;;;;;5034093;28;45441;-73
2022/03/05 04:25:03;;;;;;;;;42.75;36.25;;;;;;;;5033362;28;45581;-73
2022/03/05 04:27:28;;;;;;;;;43.25;34.50;;;;;;;;5033655;28;45351;-73
2022/03/05 04:29:53;;;;;;;;;39.25;32.00;;;;;;;;5034332;28;45933;-73
2022/03/05 04:32:18;;;;;;;;;46.50;36.25;;;;;;;;5024002;28;45538;-73
2022/03/05 04:34:44;;;;;;;;;42.25;34.25;;;;;;;;5028698;28;45473;-72
2022/03/05 04:37:09;;;;;;;;;42.50;33.50;;;;;;;;5034387;28;47620;-73
2022/03/05 04:39:34;;;;;;;;;45.00;35.00;;;;;;;;5033999;28;45374;-72
2022/03/05 04:41:59;;;;;;;;;43.75;35.00;;;;;;;;5034693;28;45455;-72
2022/03/05 04:44:25;;;;;;;;;43.75;35.00;;;;;;;;5034042;28;45499;-73
2022/03/05 04:46:50;;;;;;;;;38.50;32.25;;;;;;;;5033711;28;45663;-73
2022/03/05 04:49:15;;;;;;;;;38.25;33.25;;;;;;;;5033994;28;46005;-72
2022/03/05 04:51:41;;;;;;;;;38.75;32.25;;;;;;;;5033976;28;45416;-72
2022/03/05 04:54:06;;;;;;;;;42.50;34.50;;;;;;;;5033909;28;45413;-71
2022/03/05 04:56:31;;;;;;;;;47.25;31.25;;;;;;;;5016046;28;45652;-71
2022/03/05 04:58:56;;;;;;;;;28.50;27.00;;;;;;;;5033830;28;46731;-72
2022/03/05 05:01:22;;;;;;;;;37.00;30.00;;;;;;;;5031458;28;45475;-72
2022/03/05 05:03:47;;;;;;;;;39.00;32.75;;;;;;;;5019918;28;45419;-73
2022/03/05 05:06:12;;;;;;;;;42.00;34.25;;;;;;;;5033904;28;45328;-72
2022/03/05 05:08:37;;;;;;;;;34.25;32.50;;;;;;;;5033224;28;45511;-73
2022/03/05 05:11:03;;;;;;;;;43.00;31.75;;;;;;;;5024460;28;45460;-72
2022/03/05 05:13:28;;;;;;;;;37.75;33.50;;;;;;;;5025112;28;45367;-73
2022/03/05 05:15:53;;;;;;;;;43.25;37.25;;;;;;;;5033499;28;45452;-73
2022/03/05 05:18:18;;;;;;;;;45.00;36.75;;;;;;;;5033508;28;45395;-73
2022/03/05 05:20:43;;;;;;;;;51.75;41.50;;;;;;;;5034077;28;45289;-72
2022/03/05 05:23:09;;;;;;;;;42.25;34.75;;;;;;;;5033011;28;45435;-72
2022/03/05 05:25:34;;;;;;;;;41.75;36.25;;;;;;;;5033244;28;45430;-72
2022/03/05 05:27:59;;;;;;;;;44.75;35.75;;;;;;;;5033191;28;46052;-72
2022/03/05 05:30:24;;;;;;;;;46.00;35.75;;;;;;;;5033323;28;45952;-72
2022/03/05 05:32:49;;;;;;;;;44.50;35.25;;;;;;;;5033981;28;45288;-73
2022/03/05 05:35:15;;;;;;;;;43.00;35.75;;;;;;;;5033076;28;45355;-72
2022/03/05 05:37:41;;;;;;;;;40.25;36.00;;;;;;;;5032812;28;45393;-73
2022/03/05 05:40:06;;;;;;;;;44.00;35.00;;;;;;;;5033215;28;45381;-73
2022/03/05 05:42:31;;;;;;;;;40.50;36.50;;;;;;;;5035971;28;45355;-73
2022/03/05 05:44:57;;;;;;;;;44.25;34.50;;;;;;;;5037246;28;45253;-72
2022/03/05 05:47:22;;;;;;;;;37.25;33.00;;;;;;;;5036903;28;46036;-73
2022/03/05 05:49:47;;;;;;;;;47.25;35.75;;;;;;;;5031147;28;45360;-73
2022/03/05 05:52:12;;;;;;;;;49.25;41.00;;;;;;;;5025010;28;45523;-72
2022/03/05 05:54:38;;;;;;;;;42.00;31.75;;;;;;;;5021369;28;45793;-72
2022/03/05 05:57:03;;;;;;;;;50.75;39.25;;;;;;;;5036791;28;45299;-72
2022/03/05 05:59:29;;;;;;;;;43.50;37.50;;;;;;;;5024404;28;45514;-72
2022/03/05 06:01:54;;;;;;;;;46.75;37.75;;;;;;;;5031080;28;45357;-74
2022/03/05 06:04:19;;;;;;;;;51.00;41.25;;;;;;;;5035865;28;45449;-72
2022/03/05 06:06:44;;;;;;;;;43.25;36.00;;;;;;;;5035611;28;46511;-73
2022/03/05 06:09:09;;;;;;;;;43.50;36.50;;;;;;;;5036172;28;45761;-73
2022/03/05 06:11:35;;;;;;;;;37.75;32.75;;;;;;;;5036396;28;45304;-72
2022/03/05 06:14:00;;;;;;;;;42.50;35.25;;;;;;;;5036166;28;45410;-72
2022/03/05 06:16:25;;;;;;;;;51.25;40.00;;;;;;;;5035954;28;45383;-72
2022/03/05 06:18:51;;;;;;;;;51.50;41.50;;;;;;;;5036230;28;45466;-73
2022/03/05 06:21:16;;;;;;;;;45.50;36.00;;;;;;;;5036023;28;45357;-73
2022/03/05 06:23:41;;;;;;;;;44.75;36.00;;;;;;;;5036345;28;45423;-74
2022/03/05 06:26:06;;;;;;;;;42.50;34.00;;;;;;;;5035339;28;46357;-72
2022/03/05 06:28:32;;;;;;;;;44.00;37.25;;;;;;;;5032190;28;45333;-73
2022/03/05 06:30:57;;;;;;;;;38.25;35.75;;;;;;;;4989277;28;45463;-73
2022/03/05 06:33:22;;;;;;;;;41.75;36.25;;;;;;;;5017854;28;45321;-73
2022/03/05 06:35:48;;;;;;;;;44.50;36.25;;;;;;;;5036041;28;46289;-74
2022/03/05 06:38:13;;;;;;;;;50.50;40.25;;;;;;;;5035510;28;45585;-73
2022/03/05 06:40:38;;;;;;;;;45.50;37.50;;;;;;;;5035634;28;45441;-72
2022/03/05 06:43:04;;;;;;;;;45.50;37.50;;;;;;;;5035057;28;45431;-72
2022/03/05 06:45:29;;;;;;;;;42.00;33.50;;;;;;;;5035271;28;46419;-73
2022/03/05 06:47:54;;;;;;;;;38.50;34.50;;;;;;;;5036042;28;45392;-73
2022/03/05 06:50:20;;;;;;;;;48.25;38.25;;;;;;;;5035139;28;45276;-78
2022/03/05 06:52:45;;;;;;;;;48.50;40.25;;;;;;;;5034168;28;45434;-76
2022/03/05 06:55:14;;;;;;;;;53.50;43.50;;;;;;;;5034891;28;45506;-75
2022/03/05 06:57:39;;;;;;;;;55.50;43.75;;;;;;;;5034922;28;45411;-76
2022/03/05 07:00:05;;;;;;;;;46.00;34.75;;;;;;;;5035769;28;45415;-75
2022/03/05 07:02:30;;;;;;;;;46.00;38.00;;;;;;;;5035563;28;45442;-75
2022/03/05 07:04:55;;;;;;;;;49.75;40.00;;;;;;;;5034710;28;46186;-76
2022/03/05 07:07:21;;;;;;;;;50.00;39.25;;;;;;;;5032972;28;45412;-77
2022/03/05 07:09:46;;;;;;;;;43.75;35.50;;;;;;;;5021409;28;45441;-76
2022/03/05 07:12:11;;;;;;;;;50.50;37.50;;;;;;;;5034903;28;45517;-76
2022/03/05 07:14:36;;;;;;;;;47.75;37.25;;;;;;;;5034960;28;45959;-76
2022/03/05 07:17:02;;;;;;;;;50.50;40.25;;;;;;;;5034624;28;45466;-76
2022/03/05 07:19:27;;;;;;;;;40.50;34.00;;;;;;;;5034941;28;45419;-75
2022/03/05 07:21:53;;;;;;;;;44.00;36.25;;;;;;;;5035058;28;45394;-76
2022/03/05 07:24:18;;;;;;;;;57.00;44.00;;;;;;;;5034778;28;46611;-75
2022/03/05 07:26:43;;;;;;;;;51.50;39.25;;;;;;;;5032904;28;45328;-75
2022/03/05 07:29:08;;;;;;;;;45.50;37.00;;;;;;;;5029485;28;45379;-74
2022/03/05 07:31:34;;;;;;;;;52.00;40.00;;;;;;;;5016028;28;45432;-75
2022/03/05 07:33:59;;;;;;;;;51.75;39.50;;;;;;;;5033111;28;46157;-75
2022/03/05 07:36:24;;;;;;;;;51.50;38.75;;;;;;;;5034361;28;45410;-75
2022/03/05 07:38:51;;;;;;;;;48.25;37.25;;;;;;;;5034920;28;45373;-76
2022/03/05 07:41:16;;;;;;;;;39.50;33.25;;;;;;;;5015686;28;45561;-75
2022/03/05 07:43:42;;;;;;;;;45.50;35.75;;;;;;;;5033456;28;45697;-75
2022/03/05 07:46:07;;;;;;;;;47.25;37.25;;;;;;;;5033854;28;45298;-76
2022/03/05 07:48:32;;;;;;;;;48.50;38.00;;;;;;;;5017972;28;45330;-75
2022/03/05 07:51:00;;;;;;;;;49.00;37.25;;;;;;;;5016302;28;45661;-76
2022/03/05 07:53:25;;;;;;;;;53.00;41.25;;;;;;;;5033503;28;46852;-75
2022/03/05 07:55:51;;;;;;;;;51.00;39.00;;;;;;;;5033882;28;45334;-74
2022/03/05 07:58:16;;;;;;;;;49.25;39.00;;;;;;;;5033604;28;45265;-77
2022/03/05 08:00:41;;;;;;;;;51.00;39.50;;;;;;;;5016437;28;45588;-75
2022/03/05 08:03:06;;;;;;;;;48.25;37.50;;;;;;;;5033488;28;45937;-75
2022/03/05 08:05:32;;;;;;;;;48.75;37.75;;;;;;;;5033249;28;45358;-75
2022/03/05 08:07:57;;;;;;;;;48.00;38.50;;;;;;;;5033774;28;45453;-74
2022/03/05 08:10:22;;;;;;;;;48.00;37.25;;;;;;;;5033539;28;45303;-75
2022/03/05 08:12:48;;;;;;;;;45.75;39.00;;;;;;;;5033285;28;46246;-74
2022/03/05 08:15:13;;;;;;;;;47.00;36.75;;;;;;;;5032652;28;45411;-72
2022/03/05 08:17:54;;;;;;;;;43.75;37.50;;;;;;;;5033759;28;45174;-74
2022/03/05 08:20:20;;;;;;;;;42.50;37.00;;;;;;;;5033804;28;45302;-74
2022/03/05 08:22:45;;;;;;;;;52.50;40.25;;;;;;;;5033328;28;46108;-72
2022/03/05 08:25:12;;;;;;;;;47.25;37.00;;;;;;;;5032662;28;45487;-74
2022/03/05 08:27:37;;;;;;;;;43.75;34.75;;;;;;;;5017855;28;45431;-74
2022/03/05 08:30:03;;;;;;;;;51.50;40.25;;;;;;;;5033318;28;45382;-78
2022/03/05 08:32:28;;;;;;;;;51.00;41.00;;;;;;;;5032786;28;46466;-74
2022/03/05 08:34:53;;;;;;;;;44.75;36.50;;;;;;;;5032481;28;45421;-75
2022/03/05 08:37:19;;;;;;;;;53.00;43.25;;;;;;;;5025025;28;45628;-74
2022/03/05 08:39:44;;;;;;;;;50.25;41.00;;;;;;;;5029273;28;45602;-73
2022/03/05 08:42:09;;;;;;;;;40.50;35.50;;;;;;;;5031998;28;45529;-73
2022/03/05 08:44:34;;;;;;;;;50.00;40.25;;;;;;;;5029951;28;45245;-72
2022/03/05 08:47:00;;;;;;;;;48.25;38.00;;;;;;;;5030826;28;45612;-73
2022/03/05 08:49:25;;;;;;;;;48.00;39.25;;;;;;;;5028607;28;45272;-74
2022/03/05 08:51:50;;;;;;;;;46.50;38.25;;;;;;;;5029279;28;45417;-74
2022/03/05 08:54:15;;;;;;;;;50.50;40.50;;;;;;;;5031795;28;45228;-73
2022/03/05 08:56:41;;;;;;;;;48.25;39.50;;;;;;;;5030349;28;45431;-73
2022/03/05 08:59:06;;;;;;;;;49.00;39.00;;;;;;;;5028486;28;45434;-72
2022/03/05 09:01:31;;;;;;;;;48.25;38.25;;;;;;;;5028908;28;46351;-73
2022/03/05 09:03:57;;;;;;;;;42.50;34.50;;;;;;;;5029301;28;45370;-74
2022/03/05 09:06:22;;;;;;;;;51.00;41.75;;;;;;;;5031345;28;45653;-74
2022/03/05 09:08:47;;;;;;;;;51.00;38.00;;;;;;;;5031197;28;45533;-74
2022/03/05 09:11:12;;;;;;;;;50.25;38.50;;;;;;;;5028566;28;46142;-72
2022/03/05 09:13:38;;;;;;;;;48.00;40.25;;;;;;;;5028259;28;45537;-73
2022/03/05 09:16:04;;;;;;;;;50.75;41.00;;;;;;;;5028526;28;46152;-74
2022/03/05 09:18:29;;;;;;;;;48.25;39.75;;;;;;;;5033184;28;45454;-74
2022/03/05 09:20:54;;;;;;;;;46.75;37.00;;;;;;;;5034954;28;45979;-76
2022/03/05 09:23:19;;;;;;;;;56.25;45.25;;;;;;;;5032247;28;45470;-74
2022/03/05 09:25:45;;;;;;;;;47.75;40.50;;;;;;;;5034551;28;45429;-73
2022/03/05 09:28:10;;;;;;;;;47.25;40.25;;;;;;;;5032061;28;45466;-73
2022/03/05 09:30:35;;;;;;;;;58.00;46.25;;;;;;;;5032501;28;45468;-73
2022/03/05 09:33:00;;;;;;;;;48.75;37.75;;;;;;;;5036371;28;45404;-74
2022/03/05 09:35:25;;;;;;;;;47.00;40.25;;;;;;;;5032725;28;45766;-74
2022/03/05 09:37:51;;;;;;;;;57.00;45.00;;;;;;;;5017756;28;45522;-75
2022/03/05 09:40:16;;;;;;;;;50.75;39.00;;;;;;;;5014653;28;48465;-73
2022/03/05 09:42:45;;;;;;;;;48.25;37.00;;;;;;;;5032082;28;45506;-74
2022/03/05 09:45:11;;;;;;;;;51.50;41.00;;;;;;;;5035089;28;45359;-74
2022/03/05 09:47:37;;;;;;;;;49.00;39.00;;;;;;;;5034654;28;45383;-72
2022/03/05 09:50:03;;;;;;;;;48.50;34.50;;;;;;;;5033743;28;46227;-74
2022/03/05 09:52:28;;;;;;;;;49.25;36.50;;;;;;;;5031823;28;45475;-73
2022/03/05 09:54:53;;;;;;;;;51.75;40.50;;;;;;;;5032267;28;45562;-75
2022/03/05 09:57:19;;;;;;;;;45.00;36.50;;;;;;;;5015406;28;45348;-74
2022/03/05 09:59:44;;;;;;;;;49.50;42.25;;;;;;;;5032802;28;45421;-75
2022/03/05 10:02:09;;;;;;;;;53.25;41.50;;;;;;;;5031676;28;47835;-75
2022/03/05 10:04:35;;;;;;;;;51.50;41.00;;;;;;;;5031402;28;45364;-73
2022/03/05 10:07:09;;;;;;;;;47.50;37.25;;;;;;;;5030366;28;45360;-76
2022/03/05 10:09:35;;;;;;;;;48.00;36.00;;;;;;;;5022931;28;46370;-73
2022/03/05 10:12:00;;;;;;;;;47.25;37.75;;;;;;;;5034297;28;45438;-77
2022/03/05 10:14:26;;;;;;;;;45.50;36.50;;;;;;;;5032816;28;45479;-76
2022/03/05 10:16:59;;;;;;;;;49.25;40.25;;;;;;;;5030916;28;45514;-76
2022/03/05 10:19:24;;;;;;;;;51.75;43.00;;;;;;;;5031540;28;45559;-76
2022/03/05 10:22:08;;;;;;;;;49.50;41.00;;;;;;;;5016180;28;45563;-76
2022/03/05 10:24:37;;;;;;;;;45.25;39.00;;;;;;;;5016016;28;45319;-77
2022/03/05 10:27:03;;;;;;;;;45.00;37.50;;;;;;;;5029939;28;45508;-75
2022/03/05 10:29:34;;;;;;;;;50.25;38.50;;;;;;;;5032322;28;47265;-77
2022/03/05 10:32:02;;;;;;;;;35.00;30.75;;;;;;;;5015395;28;45492;-74
2022/03/05 10:34:29;;;;;;;;;60.75;46.50;;;;;;;;5030622;28;45425;-76
2022/03/05 10:37:02;;;;;;;;;49.50;37.25;;;;;;;;5031225;28;45456;-75
2022/03/05 10:39:27;;;;;;;;;52.75;41.75;;;;;;;;5031666;28;46176;-76
2022/03/05 10:41:54;;;;;;;;;49.00;41.00;;;;;;;;5033070;28;45321;-77
2022/03/05 10:44:20;;;;;;;;;49.50;40.75;;;;;;;;5030590;28;45639;-76
2022/03/05 10:46:54;;;;;;;;;59.00;47.50;;;;;;;;5030408;28;45503;-75
2022/03/05 10:49:20;;;;;;;;;52.00;41.00;;;;;;;;5029928;28;46092;-76
2022/03/05 10:51:46;;;;;;;;;59.25;47.50;;;;;;;;5032749;28;45594;-75
2022/03/05 10:54:12;;;;;;;;;49.00;39.00;;;;;;;;5032750;28;45651;-77
2022/03/05 10:56:37;;;;;;;;;58.00;45.75;;;;;;;;5031554;28;45524;-76
2022/03/05 10:59:02;;;;;;;;;45.00;37.00;;;;;;;;5028052;28;46139;-77
2022/03/05 11:01:28;;;;;;;;;44.50;36.75;;;;;;;;5021912;28;45349;-76
2022/03/05 11:03:54;;;;;;;;;47.75;38.50;;;;;;;;5030461;28;45443;-76
2022/03/05 11:06:19;;;;;;;;;39.00;34.75;;;;;;;;5033199;28;45351;-76
2022/03/05 11:08:45;;;;;;;;;49.00;38.50;;;;;;;;5031089;28;47119;-77
2022/03/05 11:11:10;;;;;;;;;48.25;37.00;;;;;;;;5029796;28;45415;-76
2022/03/05 11:13:35;;;;;;;;;45.50;38.00;;;;;;;;5029779;28;45423;-76
2022/03/05 11:16:02;;;;;;;;;43.50;35.50;;;;;;;;5014564;28;45457;-76
2022/03/05 11:18:28;;;;;;;;;45.00;37.75;;;;;;;;5030879;28;46359;-76
2022/03/05 11:20:53;;;;;;;;;48.00;37.00;;;;;;;;5031467;28;45405;-76
2022/03/05 11:23:20;;;;;;;;;43.50;35.25;;;;;;;;5029586;28;45305;-75
2022/03/05 11:25:46;;;;;;;;;45.50;37.25;;;;;;;;5029736;28;45537;-77
2022/03/05 11:28:17;;;;;;;;;44.50;35.75;;;;;;;;5032393;28;46304;-76
2022/03/05 11:30:43;;;;;;;;;39.25;32.25;;;;;;;;5030452;28;45498;-78
2022/03/05 11:33:12;;;;;;;;;43.50;36.25;;;;;;;;5033239;28;45426;-77
2022/03/05 11:35:43;;;;;;;;;46.50;36.50;;;;;;;;5032453;28;45692;-76
2022/03/05 11:38:28;;;;;;;;;45.75;36.00;;;;;;;;5029843;28;46225;-75
2022/03/05 11:40:53;;;;;;;;;42.50;35.50;;;;;;;;5028964;28;45378;-77
2022/03/05 11:43:20;;;;;;;;;45.25;38.25;;;;;;;;5029195;28;45478;-75
2022/03/05 11:45:49;;;;;;;;;44.00;37.00;;;;;;;;5033488;28;45543;-75
2022/03/05 11:48:24;;;;;;;;;53.00;43.75;;;;;;;;5032988;28;45533;-77
2022/03/05 11:50:51;;;;;;;;;40.50;34.75;;;;;;;;5031754;28;45401;-76
2022/03/05 11:53:16;;;;;;;;;36.25;32.50;;;;;;;;5032150;28;45432;-75
2022/03/05 11:55:42;;;;;;;;;46.75;37.50;;;;;;;;5032951;28;45657;-75
2022/03/05 11:58:09;;;;;;;;;43.00;36.00;;;;;;;;5032960;28;46663;-74
2022/03/05 12:00:35;;;;;;;;;35.50;33.25;;;;;;;;5017555;28;45215;-75
2022/03/05 12:03:01;;;;;;;;;38.25;33.25;;;;;;;;5033769;28;45361;-74
2022/03/05 12:05:33;;;;;;;;;36.50;32.50;;;;;;;;5021103;28;45624;-75
2022/03/05 12:07:58;;;;;;;;;39.75;34.25;;;;;;;;5026598;28;46399;-74
2022/03/05 12:10:24;;;;;;;;;37.75;33.00;;;;;;;;5032798;28;45421;-74
2022/03/05 12:12:56;;;;;;;;;43.75;37.00;;;;;;;;5032800;28;45311;-77
2022/03/05 12:15:32;;;;;;;;;43.50;36.25;;;;;;;;5032716;28;45351;-76
2022/03/05 12:17:57;;;;;;;;;40.25;35.50;;;;;;;;5032895;28;46229;-76
2022/03/05 12:20:26;;;;;;;;;37.75;33.25;;;;;;;;5004671;28;45388;-76
2022/03/05 12:23:03;;;;;;;;;37.00;33.75;;;;;;;;5027106;28;45483;-77
2022/03/05 12:25:32;;;;;;;;;47.25;40.25;;;;;;;;5032475;28;45692;-78
2022/03/05 12:27:57;;;;;;;;;43.25;34.50;;;;;;;;5031787;28;45505;-77
2022/03/05 12:30:28;;;;;;;;;37.50;33.50;;;;;;;;5032205;28;45461;-77
2022/03/05 12:32:58;;;;;;;;;38.25;33.00;;;;;;;;5032965;28;45375;-77
2022/03/05 12:35:23;;;;;;;;;45.50;38.25;;;;;;;;5032116;28;45495;-77
2022/03/05 12:37:49;;;;;;;;;44.00;36.50;;;;;;;;5031945;28;46898;-77
2022/03/05 12:40:14;;;;;;;;;35.75;33.00;;;;;;;;5032167;28;45405;-77
2022/03/05 12:42:44;;;;;;;;;49.50;39.50;;;;;;;;5032846;28;45197;-77
2022/03/05 12:45:27;;;;;;;;;40.00;34.50;;;;;;;;5032349;28;45558;-77
2022/03/05 12:47:54;;;;;;;;;21.25;17.75;;;;;;;;5032291;28;46704;-76
2022/03/05 12:50:22;;;;;;;;;34.50;31.25;;;;;;;;5031578;28;45522;-77
2022/03/05 12:52:57;;;;;;;;;35.25;31.75;;;;;;;;5031441;28;47263;-77
2022/03/05 12:55:25;;;;;;;;;33.50;30.00;;;;;;;;5014483;28;45433;-78
2022/03/05 12:57:51;;;;;;;;;29.25;27.75;;;;;;;;5032820;28;46438;-77
2022/03/05 13:00:17;;;;;;;;;35.00;30.75;;;;;;;;5016511;28;45584;-77
2022/03/05 13:02:42;;;;;;;;;35.25;31.50;;;;;;;;5032675;28;45198;-78
2022/03/05 13:05:14;;;;;;;;;42.00;33.50;;;;;;;;5031571;28;45287;-77
2022/03/05 13:07:39;;;;;;;;;43.50;35.75;;;;;;;;5031539;28;45821;-75
2022/03/05 13:10:08;;;;;;;;;42.00;33.25;;;;;;;;5031345;28;45289;-77
2022/03/05 13:12:34;;;;;;;;;46.50;38.50;;;;;;;;5033287;28;45245;-78
2022/03/05 13:14:59;;;;;;;;;47.00;38.00;;;;;;;;5033554;28;45490;-77
2022/03/05 13:17:24;;;;;;;;;41.75;36.25;;;;;;;;5033473;28;45680;-78
2022/03/05 13:20:00;;;;;;;;;46.00;37.50;;;;;;;;5033431;28;45577;-77
2022/03/05 13:22:25;;;;;;;;;43.50;38.00;;;;;;;;5033166;28;45583;-77
2022/03/05 13:24:51;;;;;;;;;47.00;38.25;;;;;;;;5033174;28;45429;-78
2022/03/05 13:27:16;;;;;;;;;42.50;36.25;;;;;;;;5032294;28;46285;-78
2022/03/05 13:29:42;;;;;;;;;42.75;34.50;;;;;;;;5032208;28;45532;-78
2022/03/05 13:32:07;;;;;;;;;46.25;34.25;;;;;;;;5031771;28;45398;-77
2022/03/05 13:34:32;;;;;;;;;46.25;37.25;;;;;;;;5031046;28;45380;-78
2022/03/05 13:37:09;;;;;;;;;42.25;33.50;;;;;;;;5031576;28;45459;-76
2022/03/05 13:39:35;;;;;;;;;39.25;34.25;;;;;;;;4997866;28;45464;-77
2022/03/05 13:42:01;;;;;;;;;44.50;35.00;;;;;;;;5032032;28;45330;-85
2022/03/05 13:44:30;;;;;;;;;40.75;35.25;;;;;;;;5030709;28;46152;-77
2022/03/05 13:46:56;;;;;;;;;55.00;45.25;;;;;;;;5030529;28;46332;-80
2022/03/05 13:49:22;;;;;;;;;42.50;33.75;;;;;;;;5029803;28;45466;-80
2022/03/05 13:51:49;;;;;;;;;37.50;33.75;;;;;;;;5011782;28;45375;-79
2022/03/05 13:54:14;;;;;;;;;44.50;34.00;;;;;;;;5014872;28;45284;-79
2022/03/05 13:56:43;;;;;;;;;36.50;33.50;;;;;;;;5031140;28;45396;-79
2022/03/05 13:59:09;;;;;;;;;44.00;36.25;;;;;;;;5030387;28;45359;-79
2022/03/05 14:01:36;;;;;;;;;43.00;33.75;;;;;;;;5031014;28;45417;-79
2022/03/05 14:04:09;;;;;;;;;45.50;35.75;;;;;;;;5033050;28;45397;-80
2022/03/05 14:06:53;;;;;;;;;36.00;31.00;;;;;;;;5018085;28;45478;-79
2022/03/05 14:09:34;;;;;;;;;42.00;32.75;;;;;;;;5032704;28;45430;-78
2022/03/05 14:12:00;;;;;;;;;44.50;35.00;;;;;;;;5001902;28;45362;-76